Time;durP1;ratioP1;P1;durP2;ratioP2;P2;SDS_P1;SDS_P2;PMS_P1;PMS_P2;Temp;Humidity;BMP_temperature;BMP_pressure;BME280_temperature;BME280_humidity;BME280_pressure;Samples;Min_cycle;Max_cycle;Signal;HPM_P1;HPM_P2
2023/01/12 08:06:29;;;;;;;3.72;1.10;;;;;;;;;;12795746;23;1366642;-87
2023/01/12 08:11:31;;;;;;;4.07;1.23;;;;;;;;;;12825712;23;20242;-84
2023/01/12 08:16:37;;;;;;;3.90;1.33;;;;;;;;;;12823847;23;20108;-83
2023/01/12 08:21:44;;;;;;;3.10;0.90;;;;;;;;;;12827007;23;20073;-83
2023/01/12 08:26:46;;;;;;;2.65;1.05;;;;;;;;;;12824853;23;20080;-83
2023/01/12 08:31:47;;;;;;;3.95;1.48;;;;;;;;;;12824367;23;20068;-83
2023/01/12 08:36:48;;;;;;;2.80;0.93;;;;;;;;;;12821404;23;20013;-82
2023/01/12 08:41:49;;;;;;;5.80;2.45;;;;;;;;;;12791748;23;20168;-80
2023/01/12 08:46:51;;;;;;;3.38;1.35;;;;;;;;;;12792102;23;20396;-80
2023/01/12 08:51:52;;;;;;;3.80;1.00;;;;;;;;;;12822913;23;19993;-80
2023/01/12 08:56:53;;;;;;;3.85;1.48;;;;;;;;;;12823612;23;20005;-83
2023/01/12 09:01:55;;;;;;;3.85;1.60;;;;;;;;;;12818923;23;20009;-82
2023/01/12 09:06:56;;;;;;;2.88;1.02;;;;;;;;;;12821538;23;20097;-82
2023/01/12 09:11:57;;;;;;;2.88;1.20;;;;;;;;;;12814182;23;20044;-82
2023/01/12 09:16:58;;;;;;;3.53;1.40;;;;;;;;;;12814142;23;20027;-82
2023/01/12 09:21:59;;;;;;;5.93;1.85;;;;;;;;;;12817820;23;19997;-82
2023/01/12 09:27:00;;;;;;;4.45;1.50;;;;;;;;;;12822404;23;20068;-81
2023/01/12 09:32:01;;;;;;;3.70;1.30;;;;;;;;;;12839534;23;20037;-81
2023/01/12 09:37:02;;;;;;;2.95;1.20;;;;;;;;;;12825850;23;20397;-82
2023/01/12 09:47:32;;;;;;;3.28;0.90;;;;;;;;;;12825906;23;20496;-82
2023/01/12 09:52:35;;;;;;;3.45;1.55;;;;;;;;;;12826000;23;20009;-81
2023/01/12 09:57:59;;;;;;;4.15;1.65;;;;;;;;;;12824998;23;20004;-82
2023/01/12 10:03:09;;;;;;;2.65;1.23;;;;;;;;;;12822256;23;20016;-82
2023/01/12 10:08:29;;;;;;;4.40;1.42;;;;;;;;;;12824041;23;19993;-83
2023/01/12 10:13:46;;;;;;;2.83;1.20;;;;;;;;;;12821935;23;20353;-82
2023/01/12 10:18:49;;;;;;;2.97;1.13;;;;;;;;;;12812787;23;20005;-82
2023/01/12 10:23:53;;;;;;;2.10;0.98;;;;;;;;;;12810264;23;20067;-82
2023/01/12 10:28:55;;;;;;;4.80;1.45;;;;;;;;;;12810203;23;20016;-82
2023/01/12 10:34:05;;;;;;;4.60;2.35;;;;;;;;;;12812404;23;20013;-83
2023/01/12 10:39:21;;;;;;;4.25;1.15;;;;;;;;;;12814412;23;20009;-82
2023/01/12 10:44:22;;;;;;;3.58;1.60;;;;;;;;;;12825632;23;20012;-83
2023/01/12 10:49:24;;;;;;;66.78;43.08;;;;;;;;;;12813109;23;20429;-83
2023/01/12 10:54:27;;;;;;;3.58;1.33;;;;;;;;;;12789521;23;20012;-83
2023/01/12 10:59:30;;;;;;;4.10;1.30;;;;;;;;;;12815176;23;20052;-82
2023/01/12 11:04:51;;;;;;;2.53;1.20;;;;;;;;;;12811912;23;20012;-82
2023/01/12 11:09:53;;;;;;;3.25;1.63;;;;;;;;;;12785080;23;20128;-82
2023/01/12 11:15:02;;;;;;;2.92;1.17;;;;;;;;;;12813609;23;20043;-83
2023/01/12 11:20:06;;;;;;;3.22;1.42;;;;;;;;;;12819392;23;20052;-82
2023/01/12 11:25:12;;;;;;;3.78;1.40;;;;;;;;;;12852470;23;20001;-80
2023/01/12 11:30:14;;;;;;;15.27;11.10;;;;;;;;;;12854023;23;20072;-82
2023/01/12 11:35:24;;;;;;;2.40;1.30;;;;;;;;;;12806330;23;20021;-83
2023/01/12 11:40:31;;;;;;;4.07;1.30;;;;;;;;;;12819416;23;20001;-81
2023/01/12 11:45:53;;;;;;;3.42;1.60;;;;;;;;;;12820575;23;20016;-83
2023/01/12 11:50:55;;;;;;;3.13;1.50;;;;;;;;;;12821269;23;20001;-82
2023/01/12 11:56:04;;;;;;;3.00;1.15;;;;;;;;;;12827851;23;20016;-80
2023/01/12 12:01:15;;;;;;;3.45;1.00;;;;;;;;;;12841056;23;20000;-80
2023/01/12 12:06:40;;;;;;;2.63;1.02;;;;;;;;;;12818660;23;20001;-81
2023/01/12 12:11:41;;;;;;;3.97;1.23;;;;;;;;;;12815288;23;20050;-81
2023/01/12 12:16:59;;;;;;;3.63;1.98;;;;;;;;;;12813388;23;20009;-81
2023/01/12 12:22:08;;;;;;;3.40;1.40;;;;;;;;;;12815865;23;20011;-82
2023/01/12 12:27:24;;;;;;;3.13;1.60;;;;;;;;;;12821372;23;20012;-82
2023/01/12 12:32:44;;;;;;;3.95;1.30;;;;;;;;;;12829067;23;20033;-81
2023/01/12 12:37:45;;;;;;;2.50;1.13;;;;;;;;;;12816037;23;20013;-81
2023/01/12 12:48:15;;;;;;;2.38;1.08;;;;;;;;;;12815894;23;20009;-81
2023/01/12 12:53:20;;;;;;;3.15;1.25;;;;;;;;;;12814715;23;20024;-81
2023/01/12 12:58:21;;;;;;;2.42;1.10;;;;;;;;;;12815058;23;20009;-81
2023/01/12 13:03:40;;;;;;;2.03;1.08;;;;;;;;;;12814356;23;20037;-81
2023/01/12 13:08:41;;;;;;;3.00;1.30;;;;;;;;;;12816250;23;20001;-81
2023/01/12 13:14:03;;;;;;;3.17;1.00;;;;;;;;;;12817830;23;20092;-81
2023/01/12 13:19:11;;;;;;;3.72;1.40;;;;;;;;;;12814388;23;20011;-81
2023/01/12 13:24:12;;;;;;;4.10;1.23;;;;;;;;;;12815692;23;20016;-81
2023/01/12 13:29:22;;;;;;;3.92;1.30;;;;;;;;;;12818023;23;20008;-81
2023/01/12 13:34:30;;;;;;;2.97;1.30;;;;;;;;;;12846352;23;20013;-81
2023/01/12 13:39:32;;;;;;;4.78;1.30;;;;;;;;;;12854690;23;20008;-81
2023/01/12 13:44:34;;;;;;;2.47;1.40;;;;;;;;;;12838987;23;20030;-80
2023/01/12 13:49:41;;;;;;;2.35;1.45;;;;;;;;;;12832703;23;20009;-81
2023/01/12 13:54:49;;;;;;;2.10;1.27;;;;;;;;;;12818891;23;20064;-81
2023/01/12 13:59:57;;;;;;;3.08;1.38;;;;;;;;;;12845122;23;20005;-84
2023/01/12 14:05:07;;;;;;;2.05;1.00;;;;;;;;;;12806713;23;20017;-82
2023/01/12 14:10:08;;;;;;;3.03;0.93;;;;;;;;;;12806510;23;20021;-81
2023/01/12 14:20:48;;;;;;;2.72;1.33;;;;;;;;;;12813875;23;20009;-82
2023/01/12 14:26:08;;;;;;;2.45;1.17;;;;;;;;;;12812811;23;20001;-82
2023/01/12 14:31:21;;;;;;;1.95;1.00;;;;;;;;;;12821346;23;20045;-81
2023/01/12 14:47:33;;;;;;;2.90;1.48;;;;;;;;;;12866094;23;20020;-86
2023/01/12 14:52:38;;;;;;;3.70;1.40;;;;;;;;;;12898678;23;20092;-87
2023/01/12 14:57:39;;;;;;;2.72;1.23;;;;;;;;;;12893780;23;20012;-86
2023/01/12 15:02:49;;;;;;;3.15;1.20;;;;;;;;;;12891822;23;20015;-85
2023/01/12 15:08:02;;;;;;;2.13;1.20;;;;;;;;;;12899404;23;20001;-85
2023/01/12 15:13:25;;;;;;;4.22;1.40;;;;;;;;;;12894415;23;20004;-85
2023/01/12 15:29:41;;;;;;;2.20;1.15;;;;;;;;;;12869119;23;20004;-85
2023/01/12 15:34:42;;;;;;;2.42;1.20;;;;;;;;;;12895525;23;20009;-85
2023/01/12 15:39:49;;;;;;;2.20;1.10;;;;;;;;;;12892087;23;20392;-85
2023/01/12 15:44:51;;;;;;;3.10;1.13;;;;;;;;;;12894826;23;20011;-86
2023/01/12 15:49:52;;;;;;;2.05;0.80;;;;;;;;;;12871099;23;20083;-84
2023/01/12 15:54:59;;;;;;;1.90;0.80;;;;;;;;;;12896223;23;20043;-86
2023/01/12 16:00:02;;;;;;;2.47;1.02;;;;;;;;;;12891784;23;20055;-85
2023/01/12 16:05:20;;;;;;;4.93;2.47;;;;;;;;;;12863528;23;20086;-87
2023/01/12 16:10:25;;;;;;;1.55;0.90;;;;;;;;;;12890217;23;20008;-86
2023/01/12 16:16:15;;;;;;;1.70;0.93;;;;;;;;;;12656904;23;20006;-86
2023/01/12 16:21:16;;;;;;;1.30;0.50;;;;;;;;;;12836077;23;20356;-86
2023/01/12 16:26:17;;;;;;;2.08;1.10;;;;;;;;;;12889871;23;20054;-86
2023/01/12 16:31:18;;;;;;;2.17;1.10;;;;;;;;;;12891042;23;20055;-86
2023/01/12 16:36:19;;;;;;;;;;;;;;;;;;12891243;23;20455;-86
2023/01/12 16:41:21;;;;;;;3.20;2.00;;;;;;;;;;12867006;23;19903;-87
2023/01/12 16:46:39;;;;;;;2.05;0.90;;;;;;;;;;12904342;23;20067;-86
2023/01/12 16:51:40;;;;;;;3.38;0.90;;;;;;;;;;12892422;23;20028;-86
2023/01/12 16:56:42;;;;;;;1.90;1.10;;;;;;;;;;12891476;23;20000;-87
2023/01/12 17:01:43;;;;;;;2.63;1.55;;;;;;;;;;12890375;23;20008;-87
2023/01/12 17:06:45;;;;;;;2.25;0.60;;;;;;;;;;12895316;23;20009;-84
2023/01/12 17:11:49;;;;;;;2.28;1.10;;;;;;;;;;12905104;23;20379;-88
2023/01/12 17:16:57;;;;;;;2.72;1.35;;;;;;;;;;12901150;23;20028;-88
